< < Back
Terminal Aerodrome Forecast


Current Version              Previous Versions:   1  2  3  4  5  6  7  8  9  

Terminal Aerodrome Forecast

087
FTUS44 KBMX 301132
TAFTCL
TAF
KTCL 301132Z 3012/3112 02003KT P6SM SCT250
     FM301900 36010KT P6SM SCT040 SCT200
     FM310200 36003KT P6SM SCT200=

Latest METAR

453
SAUS70 KWBC 301600 RRB
MTRTCL
METAR KTCL 301553Z 04005KT 7SM CLR 32/24 A3002 RMK AO2 SLP164
T03220244


USA.gov is the U.S. government's official web portal to all federal, state and local government web resources and services.